Moran, Minnesota
Current Conditions -  °F | °C
As of 8:13 AM on Saturday 25 Oct 2014 (Local Time) from KSAZ Reporting Station
Clear Clear  
Wind Chill: 34°   Ceiling: Unl
Heat Index: 39°   Visibility: 10mi
Dew Point: 32°   Wind: 7mph
Humidity: 75%   Direction: 280°W
Pressure: 30.02"   Gusts: NA
Location:  46.4416°N, 94.6389°W
Report Text: KSAZ 251313Z AUTO 28006KT 10SM CLR 04/00 A3002 RMK AO2
Loading
Personal Weather Stations






























Interactive Weather Map
Tropical Storm Tracking
New forecast layout! Learn more

10-Day Weather Forecast

Advertisements
Track Severe Weather on mobile